Time;durP1;ratioP1;P1;durP2;ratioP2;P2;SDS_P1;SDS_P2;PMS_P1;PMS_P2;Temp;Humidity;BMP_temperature;BMP_pressure;BME280_temperature;BME280_humidity;BME280_pressure;Samples;Min_cycle;Max_cycle;Signal;HPM_P1;HPM_P2
2021/06/12 00:00:32;;;;;;;13.48;9.35;;;;;;;16.54;62.34;100252.48;2056729;86;33093;-59
2021/06/12 00:03:37;;;;;;;11.48;8.68;;;;;;;16.50;62.57;100252.34;2056789;86;27596;-59
2021/06/12 00:06:38;;;;;;;11.40;8.48;;;;;;;16.44;62.50;100249.61;2056854;86;27647;-59
2021/06/12 00:09:40;;;;;;;11.43;7.95;;;;;;;16.39;62.61;100244.56;2093904;85;28759;-67
2021/06/12 00:12:42;;;;;;;12.25;8.75;;;;;;;16.36;62.65;100246.64;2039210;86;31899;-61
2021/06/12 00:15:44;;;;;;;10.98;8.20;;;;;;;16.31;62.82;100247.47;2037876;87;33065;-67
2021/06/12 00:18:47;;;;;;;10.40;8.58;;;;;;;16.26;62.96;100247.81;2058838;86;30452;-59
2021/06/12 00:21:48;;;;;;;17.75;9.20;;;;;;;16.21;62.92;100246.81;2071794;86;27540;-59
2021/06/12 00:24:50;;;;;;;12.33;7.92;;;;;;;16.17;62.95;100246.66;2071402;86;29538;-67
2021/06/12 00:27:54;;;;;;;9.93;8.25;;;;;;;16.12;63.11;100240.72;2061325;86;31119;-64
2021/06/12 00:30:56;;;;;;;12.00;8.53;;;;;;;16.07;63.08;100241.06;2067416;85;33045;-59
2021/06/12 00:33:58;;;;;;;16.60;8.00;;;;;;;16.03;63.54;100245.47;2037894;87;29438;-59
2021/06/12 00:36:59;;;;;;;10.38;8.10;;;;;;;15.99;63.66;100242.10;2038261;86;27573;-59
2021/06/12 00:40:03;;;;;;;13.32;8.48;;;;;;;15.93;63.61;100238.52;2071701;85;28898;-59
2021/06/12 00:43:05;;;;;;;12.05;7.75;;;;;;;15.89;63.74;100237.86;2092644;85;31144;-62
2021/06/12 00:46:07;;;;;;;14.45;8.35;;;;;;;15.85;63.96;100233.68;2092615;85;32950;-59
2021/06/12 00:49:09;;;;;;;10.30;8.00;;;;;;;15.83;64.13;100235.59;2069075;85;29384;-60
2021/06/12 00:52:11;;;;;;;11.05;7.85;;;;;;;15.82;64.06;100241.97;2058295;86;27606;-60
2021/06/12 00:55:15;;;;;;;9.80;7.80;;;;;;;15.82;64.21;100243.79;2058192;86;28689;-59
2021/06/12 00:58:16;;;;;;;14.55;7.75;;;;;;;15.83;64.50;100241.47;2071483;85;31132;-59
2021/06/12 01:01:20;;;;;;;24.52;8.35;;;;;;;15.87;64.80;100240.31;2092622;85;33079;-59
2021/06/12 01:04:22;;;;;;;17.77;8.05;;;;;;;15.91;64.87;100236.41;2092770;85;29298;-68
2021/06/12 01:07:23;;;;;;;13.15;7.70;;;;;;;15.97;64.98;100229.69;2090050;85;27820;-59
2021/06/12 01:10:25;;;;;;;15.40;7.22;;;;;;;16.02;65.34;100230.23;2058191;86;28870;-59
2021/06/12 01:14:02;;;;;;;24.60;8.00;;;;;;;16.04;65.47;100212.91;2058170;86;31324;-68
2021/06/12 01:17:16;;;;;;;9.78;7.17;;;;;;;16.06;65.34;100213.67;2058158;86;33072;-68
2021/06/12 01:20:56;;;;;;;11.97;7.30;;;;;;;16.10;65.46;100218.34;2024873;87;29434;-61
2021/06/12 01:24:33;;;;;;;11.45;7.62;;;;;;;16.10;65.41;100211.59;2024946;87;27559;-68
2021/06/12 01:27:43;;;;;;;13.43;8.28;;;;;;;16.09;65.27;100208.04;2033313;85;29834;-60
2021/06/12 01:30:46;;;;;;;8.80;6.95;;;;;;;16.08;65.26;100210.37;2077173;85;31909;-61
2021/06/12 01:33:48;;;;;;;10.53;7.33;;;;;;;16.06;65.30;100205.56;2092710;85;33017;-59
2021/06/12 01:36:50;;;;;;;10.38;7.78;;;;;;;16.06;65.44;100210.08;2090609;85;30162;-67
2021/06/12 01:39:53;;;;;;;10.28;7.28;;;;;;;16.05;65.38;100207.89;2092726;85;27629;-68
2021/06/12 01:42:56;;;;;;;11.70;8.10;;;;;;;16.03;65.33;100211.19;2092622;85;28897;-60
2021/06/12 01:45:59;;;;;;;11.93;7.97;;;;;;;16.03;65.48;100208.98;2084463;85;31075;-62
2021/06/12 01:49:02;;;;;;;12.53;7.53;;;;;;;16.03;65.30;100213.04;2058139;86;33756;-60
2021/06/12 01:52:05;;;;;;;11.30;8.28;;;;;;;16.02;65.76;100210.81;2058188;86;29321;-68
2021/06/12 01:55:08;;;;;;;11.20;7.60;;;;;;;16.02;65.58;100211.31;2046003;86;27722;-69
2021/06/12 01:58:20;;;;;;;9.25;7.80;;;;;;;16.02;65.72;100212.16;2076767;85;28811;-69
2021/06/12 02:01:23;;;;;;;9.70;7.42;;;;;;;16.03;65.72;100213.04;2078077;85;31820;-66
2021/06/12 02:04:26;;;;;;;12.60;8.15;;;;;;;16.02;65.66;100213.52;2069357;85;33976;-69
2021/06/12 02:07:29;;;;;;;13.55;7.92;;;;;;;16.03;65.73;100209.83;2044294;87;30393;-60
2021/06/12 02:10:32;;;;;;;11.83;8.23;;;;;;;16.05;65.83;100212.44;2044371;87;27498;-65
2021/06/12 02:13:35;;;;;;;14.80;8.75;;;;;;;16.07;66.07;100217.22;2044294;87;28710;-60
2021/06/12 02:16:38;;;;;;;11.65;8.43;;;;;;;16.09;66.14;100208.04;2054659;85;31021;-68
2021/06/12 02:19:41;;;;;;;12.68;8.33;;;;;;;16.13;66.24;100208.66;2078229;85;33096;-63
2021/06/12 02:22:47;;;;;;;9.40;7.50;;;;;;;16.17;66.28;100203.88;2078260;85;30282;-68
2021/06/12 02:25:48;;;;;;;12.55;8.73;;;;;;;16.20;66.39;100211.30;2055472;85;27568;-69
2021/06/12 02:28:51;;;;;;;8.65;7.50;;;;;;;16.23;66.29;100211.04;2021831;87;28842;-66
2021/06/12 02:32:04;;;;;;;10.05;8.60;;;;;;;16.26;66.24;100203.21;2022360;87;31092;-66
2021/06/12 02:35:08;;;;;;;12.13;8.25;;;;;;;16.28;66.38;100197.20;2059957;85;33032;-61
2021/06/12 02:38:10;;;;;;;13.95;9.20;;;;;;;16.30;66.29;100198.42;2078510;85;29392;-64
2021/06/12 02:41:12;;;;;;;14.63;9.60;;;;;;;16.32;66.41;100209.48;2078628;85;27515;-64
2021/06/12 02:44:13;;;;;;;13.32;10.45;;;;;;;16.33;66.37;100201.75;2073198;85;28624;-62
2021/06/12 02:47:16;;;;;;;14.55;11.05;;;;;;;16.35;66.42;100203.01;2044415;87;31084;-67
2021/06/12 02:50:20;;;;;;;15.13;10.03;;;;;;;16.36;66.42;100200.67;2044862;87;33111;-63
2021/06/12 02:53:27;;;;;;;21.42;11.65;;;;;;;16.37;66.50;100191.09;2023930;86;30146;-68
2021/06/12 02:56:31;;;;;;;18.85;9.78;;;;;;;16.37;66.38;100193.79;2085370;85;27582;-63
2021/06/12 02:59:35;;;;;;;13.70;9.83;;;;;;;16.38;66.39;100190.61;2089212;85;28684;-69
2021/06/12 03:02:40;;;;;;;15.10;9.68;;;;;;;16.36;66.28;100184.45;2089054;85;31177;-67
2021/06/12 03:05:49;;;;;;;12.88;9.23;;;;;;;16.36;66.35;100192.06;2067901;85;33176;-68
2021/06/12 03:08:52;;;;;;;13.58;9.90;;;;;;;16.34;66.38;100198.07;2012228;87;30149;-68
2021/06/12 03:11:55;;;;;;;16.25;10.28;;;;;;;16.35;66.47;100193.04;2061643;85;27685;-67
2021/06/12 03:14:58;;;;;;;14.60;9.65;;;;;;;16.36;66.38;100181.25;2088799;85;28707;-65
2021/06/12 03:18:01;;;;;;;13.88;10.28;;;;;;;16.38;66.42;100187.91;2089040;85;31085;-68
2021/06/12 03:21:03;;;;;;;14.83;9.90;;;;;;;16.40;66.46;100188.16;2089043;85;33070;-65
2021/06/12 03:24:06;;;;;;;12.23;10.28;;;;;;;16.43;66.38;100190.26;2040391;86;30132;-65
2021/06/12 03:27:09;;;;;;;11.55;10.30;;;;;;;16.47;66.42;100190.38;2054610;86;27624;-60
2021/06/12 03:30:12;;;;;;;15.32;11.00;;;;;;;16.52;66.44;100186.36;2054823;86;28617;-64
2021/06/12 03:33:14;;;;;;;14.35;11.15;;;;;;;16.57;66.41;100186.00;2058781;85;32064;-65
2021/06/12 03:36:17;;;;;;;12.13;10.40;;;;;;;16.62;66.35;100185.17;2089083;85;32905;-62
2021/06/12 03:39:20;;;;;;;14.20;10.38;;;;;;;16.70;66.39;100188.63;2089034;85;28760;-68
2021/06/12 03:42:22;;;;;;;15.35;11.68;;;;;;;16.78;66.35;100187.53;2078165;85;27578;-67
2021/06/12 03:45:24;;;;;;;16.05;11.83;;;;;;;16.88;66.32;100186.33;2054730;85;28717;-68
2021/06/12 03:48:26;;;;;;;20.25;13.60;;;;;;;16.98;66.35;100170.27;2059220;85;31081;-66
2021/06/12 03:51:28;;;;;;;19.60;14.18;;;;;;;17.09;66.42;100168.91;2077551;85;33176;-68
2021/06/12 03:54:31;;;;;;;16.35;14.25;;;;;;;17.21;66.25;100172.50;2057762;85;30151;-68
2021/06/12 03:57:34;;;;;;;19.65;14.83;;;;;;;17.35;66.26;100166.46;2054041;86;27495;-61
2021/06/12 04:00:36;;;;;;;24.10;14.65;;;;;;;17.48;66.19;100169.90;2054558;86;28684;-65
2021/06/12 04:03:38;;;;;;;19.25;15.38;;;;;;;17.62;66.12;100156.59;2079434;85;31100;-65
2021/06/12 04:06:39;;;;;;;23.05;16.05;;;;;;;17.77;66.08;100162.11;2088989;85;33843;-68
2021/06/12 04:09:41;;;;;;;20.12;16.87;;;;;;;17.95;66.05;100162.08;2064653;85;29398;-62
2021/06/12 04:12:43;;;;;;;21.52;17.52;;;;;;;18.12;66.00;100166.11;2054870;86;27500;-62
2021/06/12 04:15:45;;;;;;;22.80;17.35;;;;;;;18.30;65.94;100172.70;2054475;86;28720;-68
2021/06/12 04:18:46;;;;;;;25.23;19.07;;;;;;;18.47;65.84;100169.91;2072653;85;31799;-62
2021/06/12 04:21:49;;;;;;;20.20;17.32;;;;;;;18.67;65.72;100174.12;2088961;85;33834;-63
2021/06/12 04:24:50;;;;;;;21.70;18.75;;;;;;;18.83;65.56;100175.03;2089015;85;29385;-68
2021/06/12 04:27:52;;;;;;;21.87;17.52;;;;;;;19.01;65.29;100187.52;2082012;85;27643;-69
2021/06/12 04:30:54;;;;;;;20.62;16.15;;;;;;;19.18;65.20;100186.06;2021646;88;28896;-61
2021/06/12 04:33:56;;;;;;;19.42;14.93;;;;;;;19.30;64.83;100171.02;2044972;85;31881;-61
2021/06/12 04:36:59;;;;;;;18.05;16.00;;;;;;;19.54;64.62;100179.69;2053939;86;33020;-64
2021/06/12 04:40:01;;;;;;;20.90;15.88;;;;;;;19.77;64.40;100178.63;2085826;85;30237;-67
2021/06/12 04:43:05;;;;;;;16.75;14.68;;;;;;;19.98;64.27;100178.05;2089058;85;27551;-62
2021/06/12 04:46:07;;;;;;;17.92;14.10;;;;;;;20.35;64.26;100177.89;2089086;85;29567;-67
2021/06/12 04:49:09;;;;;;;16.30;13.32;;;;;;;21.16;64.23;100172.55;2068180;85;31013;-66
2021/06/12 04:52:11;;;;;;;14.50;12.15;;;;;;;22.16;63.39;100171.93;2054721;86;33752;-63
2021/06/12 04:55:13;;;;;;;13.88;11.15;;;;;;;23.21;62.38;100164.44;2056515;86;29935;-63
2021/06/12 04:58:15;;;;;;;13.20;9.65;;;;;;;24.25;60.91;100160.20;2068511;85;27507;-63
2021/06/12 05:01:17;;;;;;;10.80;9.48;;;;;;;25.31;59.46;100147.95;2092966;85;28956;-63
2021/06/12 05:04:19;;;;;;;11.48;9.00;;;;;;;26.33;57.80;100146.25;2092948;85;30949;-62
2021/06/12 05:07:20;;;;;;;10.18;9.18;;;;;;;27.32;56.26;100139.81;2092705;84;33100;-64
2021/06/12 05:10:22;;;;;;;9.58;8.68;;;;;;;28.35;53.95;100133.47;2058805;85;29606;-63
2021/06/12 05:13:24;;;;;;;8.23;7.40;;;;;;;29.23;52.83;100131.72;2058574;86;27568;-63
2021/06/12 05:16:26;;;;;;;8.95;7.55;;;;;;;29.84;50.79;100130.64;2058305;86;28834;-63
2021/06/12 05:19:27;;;;;;;9.73;7.85;;;;;;;29.95;49.38;100133.33;2082000;85;31262;-61
2021/06/12 05:22:29;;;;;;;9.65;7.15;;;;;;;29.81;47.96;100134.64;2092911;84;33196;-62
2021/06/12 05:25:33;;;;;;;7.75;6.85;;;;;;;29.50;47.21;100136.02;2092951;84;30174;-67
2021/06/12 05:28:35;;;;;;;9.50;7.57;;;;;;;29.15;46.26;100137.38;2080249;84;27550;-60
2021/06/12 05:31:36;;;;;;;9.28;7.12;;;;;;;28.77;45.92;100144.67;2058180;86;28998;-60
2021/06/12 05:34:38;;;;;;;8.78;6.65;;;;;;;28.33;45.72;100152.09;2058595;86;31154;-66
2021/06/12 05:37:41;;;;;;;10.50;7.80;;;;;;;27.83;45.60;100147.30;2060512;85;33010;-62
2021/06/12 05:40:43;;;;;;;9.00;6.50;;;;;;;27.33;45.78;100142.06;2092934;84;30174;-59
2021/06/12 05:43:44;;;;;;;8.28;7.47;;;;;;;26.95;45.82;100146.59;2093044;84;27530;-65
2021/06/12 05:46:46;;;;;;;8.23;7.03;;;;;;;26.63;46.06;100145.84;2092939;84;29786;-59
2021/06/12 05:49:48;;;;;;;14.70;8.28;;;;;;;26.34;46.29;100142.47;2066541;85;31080;-59
2021/06/12 05:52:50;;;;;;;8.28;7.28;;;;;;;26.11;46.29;100145.19;2058534;86;32987;-58
2021/06/12 05:55:52;;;;;;;10.82;7.15;;;;;;;25.95;46.54;100142.88;2052884;86;28847;-59
2021/06/12 05:58:54;;;;;;;9.28;8.08;;;;;;;25.87;46.83;100142.95;2050757;85;27582;-59
2021/06/12 06:01:56;;;;;;;10.78;7.40;;;;;;;25.89;46.70;100132.11;2050562;86;28805;-61
2021/06/12 06:04:58;;;;;;;10.23;7.20;;;;;;;26.46;47.25;100130.03;2052292;85;31129;-60
2021/06/12 06:08:00;;;;;;;7.05;6.35;;;;;;;27.09;46.57;100133.91;2050604;86;33798;-60
2021/06/12 06:11:04;;;;;;;9.38;6.70;;;;;;;27.15;45.79;100133.67;2050639;86;29393;-60
2021/06/12 06:14:06;;;;;;;6.40;5.70;;;;;;;27.12;45.49;100133.53;2050728;86;27461;-60
2021/06/12 06:17:08;;;;;;;8.28;6.45;;;;;;;26.99;45.30;100127.31;2082057;85;28324;-60
2021/06/12 06:20:12;;;;;;;7.50;5.75;;;;;;;26.76;45.08;100131.47;2084826;85;32044;-60
2021/06/12 06:23:14;;;;;;;8.55;6.55;;;;;;;26.48;45.13;100129.83;2084826;84;33028;-70
2021/06/12 06:26:16;;;;;;;13.25;6.67;;;;;;;26.30;45.28;100126.88;2063690;85;29964;-59
2021/06/12 06:29:18;;;;;;;7.10;5.55;;;;;;;26.18;45.40;100125.61;2050756;86;27605;-60
2021/06/12 06:32:20;;;;;;;6.37;4.95;;;;;;;26.27;45.56;100134.11;2050663;86;29614;-67
2021/06/12 06:35:22;;;;;;;5.78;5.17;;;;;;;26.83;45.46;100135.73;2061394;85;30687;-59
2021/06/12 06:38:24;;;;;;;6.55;5.17;;;;;;;27.31;44.85;100133.98;2084805;85;33813;-64
2021/06/12 06:41:26;;;;;;;6.92;6.08;;;;;;;27.80;44.33;100131.16;2084842;85;30269;-65
2021/06/12 06:44:28;;;;;;;8.35;5.22;;;;;;;28.26;44.07;100132.75;2084692;85;27586;-60
2021/06/12 06:47:30;;;;;;;6.78;5.08;;;;;;;28.79;43.63;100123.27;2017361;88;29000;-60
2021/06/12 06:50:32;;;;;;;8.48;5.45;;;;;;;29.37;42.32;100120.23;2035698;85;31893;-60
2021/06/12 06:53:35;;;;;;;6.12;4.70;;;;;;;29.84;42.28;100109.92;2050605;86;32958;-60
2021/06/12 06:56:38;;;;;;;7.53;5.30;;;;;;;30.37;41.96;100100.03;2080922;85;29600;-64
2021/06/12 06:59:41;;;;;;;5.30;4.90;;;;;;;30.69;40.94;100106.66;2093273;85;27508;-59
2021/06/12 07:02:43;;;;;;;6.45;4.72;;;;;;;31.01;40.64;100104.60;2093071;84;28735;-59
2021/06/12 07:05:45;;;;;;;6.75;4.80;;;;;;;31.25;40.52;100098.92;2079261;84;31001;-60
2021/06/12 07:08:47;;;;;;;10.58;5.25;;;;;;;31.60;40.05;100105.50;2058547;86;33924;-60
2021/06/12 07:11:49;;;;;;;7.05;4.72;;;;;;;31.42;38.99;100096.51;2098381;84;30152;-59
2021/06/12 07:14:51;;;;;;;7.08;4.62;;;;;;;31.06;39.07;100091.81;2090090;85;27638;-60
2021/06/12 07:17:53;;;;;;;6.28;4.08;;;;;;;30.82;39.29;100089.72;2058572;86;28587;-68
2021/06/12 07:20:56;;;;;;;10.25;4.80;;;;;;;30.69;39.21;100093.38;2088909;84;30939;-67
2021/06/12 07:23:58;;;;;;;5.40;4.37;;;;;;;30.70;39.02;100082.09;2060206;85;32940;-67
2021/06/12 07:27:00;;;;;;;5.50;4.90;;;;;;;30.72;39.12;100081.86;2058570;86;30113;-63
2021/06/12 07:30:05;;;;;;;7.42;4.15;;;;;;;30.84;38.82;100073.77;2058496;86;27739;-66
2021/06/12 07:33:12;;;;;;;6.08;4.60;;;;;;;31.19;38.46;100070.73;2079762;85;28726;-60
2021/06/12 07:36:14;;;;;;;5.55;4.17;;;;;;;31.46;37.94;100060.39;2092993;84;31203;-61
2021/06/12 07:39:16;;;;;;;5.40;4.35;;;;;;;31.71;37.67;100067.12;2075078;85;33819;-60
2021/06/12 07:42:18;;;;;;;4.58;4.10;;;;;;;31.81;37.80;100061.93;2081652;84;29323;-60
2021/06/12 07:45:20;;;;;;;7.17;4.60;;;;;;;31.77;37.02;100059.31;2058654;86;27496;-60
2021/06/12 07:48:21;;;;;;;5.05;4.40;;;;;;;31.69;36.90;100064.52;2058576;86;28673;-60
2021/06/12 07:51:31;;;;;;;8.30;4.47;;;;;;;31.81;36.94;100065.56;2060409;85;31964;-60
2021/06/12 07:54:29;;;;;;;6.05;4.25;;;;;;;32.04;36.40;100059.12;2064181;83;33009;-60
2021/06/12 07:57:31;;;;;;;6.15;4.90;;;;;;;32.22;36.56;100056.43;2048519;86;29392;-60
2021/06/12 08:00:32;;;;;;;5.10;4.17;;;;;;;32.46;36.46;100051.67;2048902;86;27564;-61
2021/06/12 08:03:36;;;;;;;5.40;4.90;;;;;;;32.70;36.20;100049.95;2050332;86;28760;-67
2021/06/12 08:06:38;;;;;;;7.87;4.80;;;;;;;32.98;35.70;100045.83;2050427;86;31007;-68
2021/06/12 08:09:39;;;;;;;9.73;4.42;;;;;;;33.35;35.28;100045.81;2049822;86;33026;-68
2021/06/12 08:12:41;;;;;;;4.37;3.98;;;;;;;33.77;34.89;100042.27;2048788;86;29314;-69
2021/06/12 08:15:43;;;;;;;11.15;4.25;;;;;;;33.86;34.45;100037.22;2049662;86;27631;-68
2021/06/12 08:18:45;;;;;;;4.97;3.83;;;;;;;33.75;34.30;100031.41;2050432;86;28630;-68
2021/06/12 08:21:46;;;;;;;6.33;4.25;;;;;;;33.45;34.19;100037.78;2050520;86;31058;-67
2021/06/12 08:24:49;;;;;;;6.10;3.52;;;;;;;33.16;33.76;100038.05;2050137;86;32391;-69
2021/06/12 08:27:51;;;;;;;6.17;4.00;;;;;;;33.01;33.94;100036.48;2048777;86;29362;-67
2021/06/12 08:30:52;;;;;;;5.50;3.67;;;;;;;33.13;34.10;100035.18;2048570;86;27537;-68
2021/06/12 08:33:54;;;;;;;6.33;3.85;;;;;;;33.44;33.94;100025.54;2048772;86;29786;-67
2021/06/12 08:36:58;;;;;;;3.90;3.35;;;;;;;33.81;33.75;100021.27;2050333;86;31062;-68
2021/06/12 08:40:00;;;;;;;12.30;4.00;;;;;;;34.19;33.10;100024.19;2050430;86;34143;-67
2021/06/12 08:43:05;;;;;;;3.72;3.40;;;;;;;34.53;33.07;100025.05;2050524;86;29303;-68
2021/06/12 08:46:07;;;;;;;4.90;3.17;;;;;;;35.02;32.68;100023.92;2049600;86;27526;-65
2021/06/12 08:49:09;;;;;;;6.30;3.55;;;;;;;35.26;31.68;100011.61;2048748;86;29298;-66
2021/06/12 08:52:11;;;;;;;4.45;3.15;;;;;;;35.59;31.82;100014.22;2048735;86;31810;-66
2021/06/12 08:55:12;;;;;;;3.83;3.22;;;;;;;35.91;31.29;100010.06;2049728;85;32921;-66
2021/06/12 08:58:15;;;;;;;3.62;3.33;;;;;;;36.07;30.80;100006.17;2058469;86;28624;-61
2021/06/12 09:01:16;;;;;;;5.58;3.10;;;;;;;36.32;30.65;99995.97;2058588;86;27701;-64
2021/06/12 09:04:33;;;;;;;3.80;3.12;;;;;;;36.60;30.12;99990.84;2058503;86;29915;-64
2021/06/12 09:07:39;;;;;;;3.77;2.30;;;;;;;36.74;28.86;99984.31;2025243;87;31154;-65
2021/06/12 09:10:56;;;;;;;;;;;;;;;36.40;28.51;99996.09;2027360;87;32962;-64
2021/06/12 09:14:02;;;;;;;3.40;2.87;;;;;;;35.87;28.11;99991.61;2025266;87;29415;-65
2021/06/12 09:17:04;;;;;;;4.10;2.55;;;;;;;35.53;28.38;99997.66;2052124;86;37129;-65
2021/06/12 09:20:08;;;;;;;3.70;2.77;;;;;;;35.44;28.47;99991.64;2056422;86;28823;-62
2021/06/12 09:23:17;;;;;;;;;;;;;;;35.38;28.62;99993.46;2059162;86;31060;-64
2021/06/12 09:26:21;;;;;;;5.37;2.70;;;;;;;35.32;28.33;99999.19;2057457;86;33105;-61
2021/06/12 09:29:42;;;;;;;3.80;2.62;;;;;;;35.18;28.33;100005.05;2058514;86;29448;-66
2021/06/12 09:32:45;;;;;;;4.47;2.77;;;;;;;34.94;28.31;100007.89;2025318;87;27560;-63
2021/06/12 09:35:47;;;;;;;;;;;;;;;34.69;28.29;99999.27;2040430;86;28772;-64
2021/06/12 09:38:49;;;;;;;4.25;3.00;;;;;;;34.44;28.41;99991.19;2056631;86;30994;-67
2021/06/12 09:41:54;;;;;;;6.50;2.65;;;;;;;34.22;29.01;99982.02;2056652;86;33724;-66
2021/06/12 09:44:59;;;;;;;2.87;2.60;;;;;;;34.02;28.84;99980.11;2056699;86;29311;-61
2021/06/12 09:48:16;;;;;;;3.98;2.20;;;;;;;33.68;29.39;99986.19;2039180;86;27653;-63
2021/06/12 09:51:18;;;;;;;3.60;2.85;;;;;;;33.56;29.22;99981.98;2040557;86;28695;-60
2021/06/12 09:54:25;;;;;;;4.87;3.62;;;;;;;33.52;29.72;99970.20;2057888;86;31157;-63
2021/06/12 09:57:28;;;;;;;3.08;2.77;;;;;;;33.52;29.60;99964.64;2054615;86;33028;-61
2021/06/12 10:00:39;;;;;;;5.37;2.57;;;;;;;33.55;29.78;99961.41;2057342;85;29516;-61
2021/06/12 10:03:41;;;;;;;2.45;2.25;;;;;;;33.67;29.79;99957.27;2057452;86;27898;-61
2021/06/12 10:06:43;;;;;;;5.65;2.20;;;;;;;33.83;29.64;99959.36;2056196;86;28727;-61
2021/06/12 10:09:45;;;;;;;4.58;2.67;;;;;;;33.93;29.49;99954.61;2056478;86;31009;-61
2021/06/12 10:12:47;;;;;;;3.50;2.95;;;;;;;33.87;28.89;99952.77;2057200;86;33214;-63
2021/06/12 10:15:50;;;;;;;5.20;4.00;;;;;;;33.67;29.19;99950.33;2058810;86;29567;-61
2021/06/12 10:18:55;;;;;;;3.60;3.30;;;;;;;33.53;29.60;99939.95;2058440;86;27786;-61
2021/06/12 10:21:57;;;;;;;3.30;3.00;;;;;;;33.42;29.59;99941.61;2057920;86;28647;-60
2021/06/12 10:24:59;;;;;;;3.25;2.87;;;;;;;33.33;29.65;99945.23;2056195;86;31930;-62
2021/06/12 10:28:02;;;;;;;4.05;3.35;;;;;;;33.28;29.84;99936.75;2056504;86;33046;-61
2021/06/12 10:31:07;;;;;;;5.37;2.93;;;;;;;33.16;30.18;99949.22;2056690;86;29364;-58
2021/06/12 10:34:10;;;;;;;3.00;2.40;;;;;;;33.01;30.07;99949.63;2039547;86;27590;-59
2021/06/12 10:37:12;;;;;;;3.02;2.83;;;;;;;32.73;30.01;99951.84;2055435;85;29584;-57
2021/06/12 10:40:15;;;;;;;5.40;2.90;;;;;;;32.35;30.32;99948.73;2050229;85;31768;-59
2021/06/12 10:43:27;;;;;;;7.53;3.43;;;;;;;32.04;30.57;99944.12;2058061;85;33590;-66
2021/06/12 10:46:32;;;;;;;4.05;2.98;;;;;;;31.60;31.41;99957.34;2053930;85;29305;-64
2021/06/12 10:49:34;;;;;;;4.10;3.25;;;;;;;31.07;32.24;99966.75;2053132;85;27610;-63
2021/06/12 10:52:44;;;;;;;16.45;14.68;;;;;;;30.57;33.16;99968.20;2050722;85;28692;-61
2021/06/12 10:55:53;;;;;;;39.80;35.60;;;;;;;30.03;33.68;99979.84;2060346;85;31003;-66
2021/06/12 10:58:57;;;;;;;14.60;5.92;;;;;;;29.51;35.00;99991.97;2065438;84;34061;-66
2021/06/12 11:02:24;;;;;;;10.48;4.55;;;;;;;28.95;38.13;100016.78;2065239;84;31003;-65
2021/06/12 11:09:28;;;;;;;4.85;2.98;;;;;;;27.67;40.58;100023.66;1894184;92;27748;-61
2021/06/12 11:12:34;;;;;;;6.63;2.90;;;;;;;26.96;41.36;100022.38;1863668;94;31228;-62
2021/06/12 11:15:35;;;;;;;;;;;;;;;26.37;41.66;100010.27;1849258;95;33039;-66
2021/06/12 11:18:37;;;;;;;6.37;4.20;;;;;;;25.87;43.38;99996.95;1869178;94;29389;-61
2021/06/12 11:21:44;;;;;;;4.53;2.67;;;;;;;25.50;43.99;99994.48;1908617;92;27685;-62
2021/06/12 11:24:47;;;;;;;5.50;2.37;;;;;;;25.12;44.86;99999.30;1897841;92;27608;-69
2021/06/12 11:27:52;;;;;;;2.62;2.20;;;;;;;24.76;45.61;100010.74;1882163;93;32087;-66
2021/06/12 11:30:57;;;;;;;;;;;;;;;24.42;46.60;100015.44;1889022;93;33844;-70
2021/06/12 11:34:21;;;;;;;36.23;5.60;;;;;;;24.05;47.97;100052.41;1876128;93;29371;-77
2021/06/12 11:37:24;;;;;;;12.23;4.70;;;;;;;23.61;49.90;100039.84;1882376;93;27715;-68
2021/06/12 11:40:26;;;;;;;11.22;6.03;;;;;;;23.12;50.87;100059.66;1863423;94;28048;-67
2021/06/12 11:43:32;;;;;;;6.05;4.62;;;;;;;22.78;51.69;100050.95;1908476;92;31177;-81
2021/06/12 11:46:42;;;;;;;8.13;4.45;;;;;;;22.46;52.40;100040.18;1972867;86;33033;-61
2021/06/12 11:49:50;;;;;;;5.30;4.22;;;;;;;22.19;53.75;100026.13;2018548;86;29310;-61
2021/06/12 11:52:51;;;;;;;4.30;3.65;;;;;;;21.89;54.30;100003.21;1999995;86;27981;-61
2021/06/12 11:55:53;;;;;;;7.28;4.60;;;;;;;21.76;55.05;100002.23;2010929;86;28946;-64
2021/06/12 11:58:58;;;;;;;9.53;7.72;;;;;;;21.77;56.02;100001.75;2014319;86;31266;-66
2021/06/12 12:02:06;;;;;;;15.78;13.65;;;;;;;21.86;56.86;99989.88;2011171;86;33793;-66
2021/06/12 12:05:09;;;;;;;10.35;9.25;;;;;;;22.05;57.80;99986.63;2014416;86;30350;-62
2021/06/12 12:08:22;;;;;;;15.43;13.55;;;;;;;22.14;57.53;99975.62;2000652;86;27767;-63
2021/06/12 12:11:25;;;;;;;8.65;4.80;;;;;;;22.12;57.30;99972.19;1991646;88;28800;-63
2021/06/12 12:14:39;;;;;;;8.60;4.40;;;;;;;22.11;57.43;99966.91;1979731;88;31034;-64
2021/06/12 12:17:40;;;;;;;5.17;4.28;;;;;;;22.10;57.54;99955.64;1983083;88;33180;-68
2021/06/12 12:20:48;;;;;;;17.32;10.70;;;;;;;22.15;57.61;99953.30;1975284;88;29548;-65
2021/06/12 12:23:55;;;;;;;6.78;4.85;;;;;;;22.28;58.03;99939.20;1974489;88;27694;-64
2021/06/12 12:27:08;;;;;;;4.33;2.83;;;;;;;22.57;58.86;99939.41;1952108;88;28817;-64
2021/06/12 12:30:14;;;;;;;3.37;2.52;;;;;;;22.80;58.20;99933.34;1912612;90;31097;-64
2021/06/12 12:33:20;;;;;;;5.70;4.67;;;;;;;23.01;57.79;99926.93;1929423;90;33089;-66
2021/06/12 12:36:24;;;;;;;5.00;2.90;;;;;;;23.27;57.74;99923.25;1929654;90;29579;-62
2021/06/12 12:39:42;;;;;;;3.02;1.98;;;;;;;23.57;57.50;99910.46;1928480;90;27614;-63
2021/06/12 12:42:44;;;;;;;2.70;2.50;;;;;;;23.88;56.79;99904.28;1928719;89;28772;-61
2021/06/12 12:45:47;;;;;;;3.67;2.50;;;;;;;24.11;56.40;99901.70;1967292;87;32070;-68
2021/06/12 12:48:49;;;;;;;17.90;13.30;;;;;;;24.34;56.48;99898.23;2017868;86;33104;-66
2021/06/12 12:51:59;;;;;;;10.10;7.90;;;;;;;24.59;56.47;99886.67;2010226;86;29375;-59
2021/06/12 12:55:05;;;;;;;3.02;2.72;;;;;;;24.82;56.79;99879.06;1999140;87;27620;-59
2021/06/12 12:58:09;;;;;;;2.60;2.37;;;;;;;25.05;56.41;99880.97;2012782;86;28611;-66
2021/06/12 13:01:14;;;;;;;3.10;2.45;;;;;;;25.23;55.69;99879.32;2020376;86;31850;-66
2021/06/12 13:04:34;;;;;;;6.58;2.65;;;;;;;25.39;55.49;99879.19;2032113;86;33906;-65
2021/06/12 13:07:36;;;;;;;8.43;2.62;;;;;;;25.53;55.40;99873.97;2015800;86;29431;-66
2021/06/12 13:10:49;;;;;;;4.23;3.07;;;;;;;25.65;55.33;99868.89;2005173;86;27660;-66
2021/06/12 13:13:51;;;;;;;4.45;2.72;;;;;;;25.73;54.48;99866.89;2009831;86;28677;-66
2021/06/12 13:17:20;;;;;;;4.08;2.50;;;;;;;25.77;54.66;99857.26;2017293;86;30987;-69
2021/06/12 13:20:23;;;;;;;3.22;2.62;;;;;;;25.87;54.43;99847.38;2008174;86;34118;-66
2021/06/12 13:23:26;;;;;;;3.85;3.00;;;;;;;25.93;54.50;99852.13;2007109;86;29306;-66
2021/06/12 13:26:34;;;;;;;18.25;13.55;;;;;;;26.00;54.51;99852.23;2005559;86;27584;-64
2021/06/12 13:29:36;;;;;;;3.92;3.12;;;;;;;25.97;54.06;99843.53;2023637;86;28730;-65
2021/06/12 13:32:38;;;;;;;9.75;7.78;;;;;;;25.89;53.94;99832.96;2052974;85;31175;-65
2021/06/12 13:35:53;;;;;;;5.78;3.70;;;;;;;25.90;54.61;99834.66;2055935;85;32928;-74
2021/06/12 13:38:58;;;;;;;6.97;3.65;;;;;;;26.00;54.71;99834.39;2055717;85;29326;-69
2021/06/12 13:42:11;;;;;;;6.92;3.85;;;;;;;26.04;54.28;99823.88;2055484;85;27533;-68
2021/06/12 13:45:13;;;;;;;17.75;15.88;;;;;;;26.04;54.39;99822.50;2055653;85;28536;-67
2021/06/12 13:48:15;;;;;;;6.67;4.67;;;;;;;26.02;54.34;99825.95;2053368;85;31011;-69
2021/06/12 13:51:18;;;;;;;7.60;4.20;;;;;;;25.88;54.07;99822.19;2052414;85;32928;-67
2021/06/12 13:54:22;;;;;;;5.25;4.53;;;;;;;25.68;53.87;99826.84;2056142;85;30074;-69
2021/06/12 13:57:23;;;;;;;13.43;12.10;;;;;;;25.51;54.21;99828.03;2055109;85;27557;-65
2021/06/12 14:00:25;;;;;;;8.95;5.80;;;;;;;25.30;54.75;99818.08;2056037;85;29344;-65
2021/06/12 14:03:27;;;;;;;6.17;4.97;;;;;;;25.06;54.61;99819.13;2055711;85;31109;-61
2021/06/12 14:06:31;;;;;;;7.83;7.12;;;;;;;24.83;54.76;99813.62;2056232;85;32996;-65
2021/06/12 14:09:34;;;;;;;9.60;5.25;;;;;;;24.62;55.28;99811.00;2059116;84;30484;-68
2021/06/12 14:12:36;;;;;;;7.67;6.83;;;;;;;24.45;55.89;99817.59;2062841;84;27772;-59
2021/06/12 14:15:38;;;;;;;6.87;6.03;;;;;;;24.24;56.14;99823.16;2059823;84;28798;-60
2021/06/12 14:18:40;;;;;;;8.93;6.85;;;;;;;24.03;56.41;99815.55;2061977;84;31782;-65